Apulia Station, New York
Current Conditions -  °F | °C
As of 2:15 PM on Friday 28 Nov 2014 (Local Time) from KN03 Reporting Station
Broken Clouds Broken Clouds  
Wind Chill: 18°   Ceiling: 4200
Heat Index: 27°   Visibility: 10mi
Dew Point: 14°   Wind: 8mph
Humidity: 59%   Direction: 290°WNW
Pressure: 30.18"   Gusts: 20mph
Location:  42.82°N, 76.07°W
Report Text: KN03 281915Z AUTO 29007G17KT 10SM SCT033 BKN042 M03/M10 A3018 RMK AO2
Loading
Personal Weather Stations






























Interactive Weather Map New forecast layout! Learn more

10-Day Weather Forecast

Advertisements
Track Severe Weather on mobile